Weather at Værøy STOLport [CLOSED]

Public forecast

Using degrees Celsius for public forecast. Weather courtesy of forecast.io.

Closest aviation weather report (METAR) to Værøy STOLport

Report is more than 6 hours old.

Closest report is Værøy Heliport, 2.3 nm (4.3 km) SSE.

2022/11/14 14:50 (retrieved 2 years ago)

ENVR 141450Z 35014KT 9999 FEW012 SCT017 07/05 Q1024

Closest aviation forecast (TAF) to Værøy STOLport

Forecast is more than 12 hours old.

Closest forecast is Bodø Airport, 46.2 nm (85.6 km) ESE.

2023/02/22 18:36 (retrieved 1 year ago)

TAF ENBO 221700Z 2218/2318 09025KT 9999 BKN020 TEMPO 2218/2220 2000 SN VV012 TEMPO 2219/2224 18009KT PROB40 2220/2301 3000 DZRA BR BKN004 BECMG 2223/2302 23022KT FEW020CB SCT025 TEMPO 2223/2318 23028G40KT 2000 SHSNRA VV008